Aeroporto :
LOGIN :

Iscrizione | Disclaimer

   EN    FR    IT 

 










Sommario :    VFR   VFR Marginale   IFR   IFR Intensivo   IFR Molto Intensivo
Visibilità : 
Base nubi : 
>= 8 km
>= 3000ft
5 / 8 km
1000 / 3000 ft
1500m / 5 km
500 / 1000 ft
800 / 1500m
200 / 500 ft
< 800m
< 200 ft
Simboli :   Temporali  Nebbia  Neve Forte  Precipitazioni Forti  Vento > 20 kt
SIGMETs :   Varie  Temporali  Ghiacco  Turbolenza  Onda orograficha  Ceneri Vulcaniche







- Altitudine del aeroporto : 291 ft
- Codice IATA : ORY
- Carte del aeroporto


LFPO - Paris-Orly

ULTIMO METAR :
  • 222300Z 03008KT CAVOK 19/11 Q1026 NOSIG

METARs OBSOLETI :
  • 222230Z 04008KT CAVOK 19/11 Q1026 NOSIG
  • 222200Z 02008KT CAVOK 20/11 Q1026 NOSIG
  • 222130Z 36005KT 340V040 CAVOK 19/09 Q1025 NOSIG
  • 222100Z 06004KT CAVOK 20/09 Q1025 NOSIG
  • 222030Z 06005KT CAVOK 21/09 Q1025 NOSIG

TAF TAF LFPO
Valido dal 22 a 18 ore il 24 a 00 ore UTC


221700Z 2218/2324 03006KT CAVOK
ATIS : +33 1 49 75 65 80
Nessun NOTAM noto per questo aeroporto.



MetMap, La meteo Aeronautica in un colpo d'occhio ! - Copyright ORBIFLY Dicembre 2007 - Disclaimer

ORBIFLY MET'MAP TEAM :

Programmazione e sviluppo : Alexandra Zaïnal
Concezione e sviluppo : Baudouin d'Aumeries
Co-Programmazione e sviluppo : Marc-Olivier Méhu
Supporto tecnico e logistico : Manuel Goepfert
Aiuto per la traduzione : Arnaldo La Scala

Contatto : metmap@orbifly.com




FONTI E CREDITI :

   NOAA